createdAt,value
2023-02-07T00:00:35.905Z,7.97
2023-02-07T00:01:37.753Z,6.65
2023-02-07T00:02:43.630Z,7.57
2023-02-07T00:03:46.809Z,6.32
2023-02-07T00:04:48.607Z,7.78
2023-02-07T00:05:50.336Z,8.53
2023-02-07T00:06:52.016Z,8.52
2023-02-07T00:07:53.738Z,9.40
2023-02-07T00:08:56.018Z,7.75
2023-02-07T00:09:57.801Z,9.73
2023-02-07T00:11:04.792Z,6.45
2023-02-07T00:12:06.765Z,7.28
2023-02-07T00:13:08.660Z,5.75
2023-02-07T00:14:12.649Z,8.55
2023-02-07T00:15:14.374Z,7.07
2023-02-07T00:16:16.265Z,5.60
2023-02-07T00:17:18.253Z,7.50
2023-02-07T00:18:20.079Z,6.68
2023-02-07T00:19:21.902Z,8.02
2023-02-07T00:20:23.668Z,6.80
2023-02-07T00:21:26.351Z,5.25
2023-02-07T00:22:28.178Z,7.05
2023-02-07T00:23:30.313Z,7.35
2023-02-07T00:24:32.048Z,6.00
2023-02-07T00:25:33.820Z,6.38
2023-02-07T00:26:35.553Z,5.70
2023-02-07T00:27:38.207Z,5.82
2023-02-07T00:28:40.086Z,5.40
2023-02-07T00:29:41.933Z,5.60
2023-02-07T00:30:43.646Z,7.10
2023-02-07T00:31:45.801Z,5.47
2023-02-07T00:32:47.719Z,5.72
2023-02-07T00:33:51.146Z,8.60
2023-02-07T00:34:52.979Z,4.90
2023-02-07T00:35:59.670Z,8.23
2023-02-07T00:37:01.564Z,6.50
2023-02-07T00:38:03.511Z,5.93
2023-02-07T00:39:09.016Z,6.45
2023-02-07T00:40:11.062Z,6.32
2023-02-07T00:41:13.680Z,4.90
2023-02-07T00:42:15.489Z,6.72
2023-02-07T00:43:29.089Z,8.68
2023-02-07T00:44:31.908Z,5.25
2023-02-07T00:45:33.718Z,6.20
2023-02-07T00:46:36.346Z,7.18
2023-02-07T00:47:38.016Z,5.60
2023-02-07T00:48:39.832Z,6.57
2023-02-07T00:49:41.587Z,5.35
2023-02-07T00:50:43.417Z,6.72
2023-02-07T00:51:45.181Z,5.40
2023-02-07T00:52:46.913Z,6.95
2023-02-07T00:53:48.633Z,6.90
2023-02-07T00:54:50.360Z,7.35
2023-02-07T00:55:52.815Z,6.57
2023-02-07T00:56:54.532Z,7.43
2023-02-07T00:57:56.300Z,6.37
2023-02-07T00:58:58.627Z,6.53
2023-02-07T01:00:00.384Z,8.68
2023-02-07T01:01:02.569Z,6.82
2023-02-07T01:02:04.280Z,6.53
2023-02-07T01:03:06.052Z,7.80
2023-02-07T01:04:07.843Z,7.00
2023-02-07T01:05:10.660Z,7.90
2023-02-07T01:06:12.591Z,6.13
2023-02-07T01:07:14.344Z,7.55
2023-02-07T01:08:16.177Z,5.80
2023-02-07T01:09:17.900Z,8.13
2023-02-07T01:10:20.068Z,6.82
2023-02-07T01:11:21.842Z,7.38
2023-02-07T01:12:23.605Z,7.32
2023-02-07T01:13:25.368Z,6.57
2023-02-07T01:14:27.633Z,6.55
2023-02-07T01:15:29.426Z,5.68
2023-02-07T01:16:34.435Z,9.13
2023-02-07T01:17:36.163Z,6.45
2023-02-07T01:18:37.922Z,9.20
2023-02-07T01:19:39.699Z,6.63
2023-02-07T01:20:41.553Z,5.68
2023-02-07T01:21:43.427Z,6.45
2023-02-07T01:22:45.175Z,6.50
2023-02-07T01:23:47.352Z,5.28
2023-02-07T01:24:49.120Z,6.15
2023-02-07T01:25:50.854Z,7.43
2023-02-07T01:26:52.646Z,7.25
2023-02-07T01:27:54.836Z,5.88
2023-02-07T01:28:56.596Z,6.97
2023-02-07T01:29:58.474Z,6.13
2023-02-07T01:31:00.272Z,8.40
2023-02-07T01:32:02.219Z,6.80
2023-02-07T01:33:04.252Z,6.47
2023-02-07T01:34:06.022Z,7.45
2023-02-07T01:35:08.075Z,5.57
2023-02-07T01:36:15.575Z,7.40
2023-02-07T01:37:17.831Z,6.60
2023-02-07T01:38:19.603Z,7.80
2023-02-07T01:39:21.280Z,6.30
2023-02-07T01:40:23.105Z,6.05
2023-02-07T01:41:26.983Z,7.30
2023-02-07T01:42:29.363Z,6.72
2023-02-07T01:43:31.972Z,6.43
2023-02-07T01:44:36.724Z,6.35
2023-02-07T01:45:40.446Z,6.25
2023-02-07T01:46:42.375Z,7.60
2023-02-07T01:47:44.347Z,6.95
2023-02-07T01:48:46.201Z,7.00
2023-02-07T01:49:51.356Z,6.23
2023-02-07T01:50:55.607Z,6.53
2023-02-07T01:52:10.311Z,6.82
2023-02-07T01:53:14.427Z,7.47
2023-02-07T01:54:18.168Z,6.72
2023-02-07T01:55:27.416Z,7.65
2023-02-07T01:56:31.915Z,6.15
2023-02-07T01:57:35.074Z,6.80
2023-02-07T01:58:38.039Z,7.20
2023-02-07T01:59:40.706Z,7.05
2023-02-07T02:00:43.518Z,7.57
2023-02-07T02:01:46.501Z,5.70
2023-02-07T02:02:48.496Z,7.43
2023-02-07T02:03:53.451Z,5.63
2023-02-07T02:04:57.771Z,7.68
2023-02-07T02:05:59.908Z,7.05
2023-02-07T02:07:01.759Z,5.63
2023-02-07T02:08:03.827Z,7.70
2023-02-07T02:09:11.329Z,7.55
2023-02-07T02:10:19.561Z,5.80
2023-02-07T02:11:27.260Z,5.30
2023-02-07T02:12:53.568Z,7.30
2023-02-07T02:14:05.823Z,6.00
2023-02-07T02:15:35.586Z,9.15
2023-02-07T02:16:57.189Z,7.82
2023-02-07T02:18:23.179Z,6.72
2023-02-07T02:19:43.711Z,6.85
2023-02-07T02:21:03.526Z,6.13
2023-02-07T02:22:23.438Z,6.13
2023-02-07T02:24:12.360Z,4.63
2023-02-07T02:27:30.750Z,4.03
2023-02-07T02:29:09.456Z,5.30
2023-02-07T02:30:38.665Z,4.35
2023-02-07T02:32:00.107Z,5.30
2023-02-07T02:33:40.052Z,4.90
2023-02-07T02:34:44.392Z,5.00
2023-02-07T02:35:50.808Z,5.22
2023-02-07T02:37:10.228Z,6.78
2023-02-07T02:38:23.991Z,5.20
2023-02-07T02:39:57.647Z,3.93
2023-02-07T02:41:15.443Z,6.63
2023-02-07T02:42:31.086Z,5.05
2023-02-07T02:43:32.757Z,6.28
2023-02-07T02:44:45.734Z,5.82
2023-02-07T02:45:56.550Z,7.60
2023-02-07T02:46:59.561Z,7.38
2023-02-07T02:48:02.428Z,8.65
2023-02-07T02:49:08.166Z,6.63
2023-02-07T02:50:18.456Z,7.63
2023-02-07T02:51:20.606Z,6.37
2023-02-07T02:52:22.311Z,6.07
2023-02-07T02:53:24.185Z,7.07
2023-02-07T02:54:34.257Z,5.57
2023-02-07T02:55:57.575Z,6.90
2023-02-07T02:57:11.189Z,5.68
2023-02-07T02:58:36.836Z,7.85
2023-02-07T02:59:59.870Z,6.45
2023-02-07T03:01:23.897Z,7.20
2023-02-07T03:02:31.277Z,7.35
2023-02-07T03:03:42.568Z,8.67
2023-02-07T03:05:11.760Z,7.82
2023-02-07T03:06:33.353Z,19.73
2023-02-07T03:07:49.980Z,29.92
2023-02-07T03:09:00.817Z,38.85
2023-02-07T03:10:15.095Z,41.13
2023-02-07T03:11:29.147Z,36.80
2023-02-07T03:12:58.059Z,34.35
2023-02-07T03:14:19.982Z,20.42
2023-02-07T03:15:21.616Z,13.18
2023-02-07T03:16:43.461Z,12.23
2023-02-07T03:18:02.578Z,12.05
2023-02-07T03:19:13.372Z,8.20
2023-02-07T03:20:39.306Z,9.10
2023-02-07T03:21:55.501Z,11.30
2023-02-07T03:23:00.130Z,7.63
2023-02-07T03:24:06.526Z,8.48
2023-02-07T03:25:09.765Z,9.48
2023-02-07T03:26:12.571Z,13.35
2023-02-07T03:27:18.919Z,12.88
2023-02-07T03:28:21.981Z,9.63
2023-02-07T03:29:25.730Z,11.10
2023-02-07T03:30:33.208Z,9.77
2023-02-07T03:31:38.291Z,10.07
2023-02-07T03:32:45.611Z,9.43
2023-02-07T03:33:49.891Z,12.95
2023-02-07T03:35:01.217Z,13.13
2023-02-07T03:36:11.841Z,13.30
2023-02-07T03:37:22.544Z,11.70
2023-02-07T03:38:25.092Z,9.80
2023-02-07T03:39:27.437Z,10.83
2023-02-07T03:40:35.632Z,11.60
2023-02-07T03:41:49.823Z,10.40
2023-02-07T03:43:02.137Z,12.15
2023-02-07T03:44:05.257Z,11.23
2023-02-07T03:45:12.080Z,9.27
2023-02-07T03:46:13.941Z,16.00
2023-02-07T03:47:18.277Z,12.05
2023-02-07T03:48:19.967Z,12.95
2023-02-07T03:49:21.837Z,12.05
2023-02-07T03:50:23.633Z,12.43
2023-02-07T03:51:25.447Z,7.90
2023-02-07T03:52:27.468Z,12.48
2023-02-07T03:53:29.335Z,12.70
2023-02-07T03:54:31.104Z,12.48
2023-02-07T03:55:33.263Z,10.23
2023-02-07T03:56:35.077Z,12.88
2023-02-07T03:57:37.207Z,17.80
2023-02-07T03:58:38.957Z,15.93
2023-02-07T03:59:40.751Z,13.10
2023-02-07T04:00:42.438Z,15.67
2023-02-07T04:01:44.180Z,17.13
2023-02-07T04:02:46.290Z,12.32
2023-02-07T04:03:48.000Z,13.40
2023-02-07T04:04:50.012Z,10.30
2023-02-07T04:05:51.736Z,13.63
2023-02-07T04:06:53.519Z,12.88
2023-02-07T04:07:55.406Z,21.80
2023-02-07T04:08:57.183Z,17.48
2023-02-07T04:09:58.942Z,20.08
2023-02-07T04:11:02.499Z,23.97
2023-02-07T04:12:04.541Z,13.95
2023-02-07T04:13:06.376Z,15.75
2023-02-07T04:14:08.199Z,15.70
2023-02-07T04:15:10.410Z,15.60
2023-02-07T04:16:12.157Z,13.88
2023-02-07T04:17:13.955Z,14.73
2023-02-07T04:18:15.901Z,12.32
2023-02-07T04:19:17.800Z,15.90
2023-02-07T04:20:19.628Z,15.15
2023-02-07T04:21:21.499Z,14.30
2023-02-07T04:22:23.270Z,14.60
2023-02-07T04:23:24.947Z,12.27
2023-02-07T04:24:26.740Z,10.50
2023-02-07T04:25:28.409Z,15.23
2023-02-07T04:26:30.367Z,14.98
2023-02-07T04:27:32.103Z,15.68
2023-02-07T04:28:33.835Z,22.83
2023-02-07T04:29:35.676Z,15.88
2023-02-07T04:30:37.340Z,11.07
2023-02-07T04:31:39.222Z,13.80
2023-02-07T04:32:40.952Z,14.93
2023-02-07T04:33:42.820Z,11.77
2023-02-07T04:34:44.721Z,14.02
2023-02-07T04:35:46.382Z,12.80
2023-02-07T04:36:48.176Z,15.93
2023-02-07T04:37:49.935Z,11.63
2023-02-07T04:38:51.869Z,18.17
2023-02-07T04:39:53.595Z,21.30
2023-02-07T04:41:04.363Z,21.58
2023-02-07T04:42:06.191Z,35.77
2023-02-07T04:43:07.877Z,50.78
2023-02-07T04:44:09.997Z,75.35
2023-02-07T04:45:11.892Z,41.28
2023-02-07T04:46:13.672Z,27.85
2023-02-07T04:47:15.313Z,25.35
2023-02-07T04:48:17.170Z,20.35
2023-02-07T04:49:19.053Z,17.40
2023-02-07T04:50:20.825Z,24.23
2023-02-07T04:51:22.630Z,19.95
2023-02-07T04:52:24.444Z,35.30
2023-02-07T04:53:26.081Z,31.95
2023-02-07T04:54:27.802Z,17.70
2023-02-07T04:55:29.505Z,14.60
2023-02-07T04:56:31.276Z,9.70
2023-02-07T04:57:33.080Z,8.85
2023-02-07T04:58:34.918Z,11.45
2023-02-07T04:59:36.715Z,12.73
2023-02-07T05:00:38.416Z,14.10
2023-02-07T05:01:40.180Z,13.82
2023-02-07T05:02:41.939Z,10.17
2023-02-07T05:03:43.764Z,8.13
2023-02-07T05:04:45.777Z,8.10
2023-02-07T05:05:47.611Z,10.57
2023-02-07T05:06:49.391Z,29.33
2023-02-07T05:07:51.287Z,28.15
2023-02-07T05:08:52.932Z,32.45
2023-02-07T05:09:54.645Z,44.40
2023-02-07T05:10:56.646Z,51.95
2023-02-07T05:11:58.337Z,28.00
2023-02-07T05:13:00.548Z,19.37
2023-02-07T05:14:02.257Z,15.57
2023-02-07T05:15:04.293Z,13.23
2023-02-07T05:16:06.635Z,13.68
2023-02-07T05:17:08.410Z,11.30
2023-02-07T05:18:10.057Z,14.18
2023-02-07T05:19:11.723Z,15.15
2023-02-07T05:20:14.525Z,20.85
2023-02-07T05:21:16.454Z,38.33
2023-02-07T05:22:18.262Z,35.95
2023-02-07T05:23:20.336Z,44.83
2023-02-07T05:24:22.027Z,36.30
2023-02-07T05:25:23.779Z,31.27
2023-02-07T05:26:25.512Z,28.52
2023-02-07T05:27:27.222Z,37.05
2023-02-07T05:28:28.925Z,29.65
2023-02-07T05:29:30.684Z,32.05
2023-02-07T05:30:32.637Z,31.30
2023-02-07T05:31:34.502Z,37.05
2023-02-07T05:32:36.204Z,42.38
2023-02-07T05:33:37.905Z,43.40
2023-02-07T05:34:39.668Z,36.92
2023-02-07T05:35:44.576Z,28.42
2023-02-07T05:36:46.320Z,43.90
2023-02-07T05:37:48.204Z,39.30
2023-02-07T05:38:49.966Z,33.83
2023-02-07T05:39:51.698Z,30.60
2023-02-07T05:40:53.366Z,26.08
2023-02-07T05:41:55.124Z,28.15
2023-02-07T05:42:57.143Z,36.03
2023-02-07T05:43:58.885Z,31.83
2023-02-07T05:45:00.555Z,27.70
2023-02-07T05:46:02.327Z,31.38
2023-02-07T05:47:04.122Z,24.85
2023-02-07T05:48:07.091Z,27.55
2023-02-07T05:49:08.728Z,29.05
2023-02-07T05:50:10.499Z,34.25
2023-02-07T05:51:12.244Z,26.02
2023-02-07T05:52:14.043Z,21.40
2023-02-07T05:53:15.736Z,21.52
2023-02-07T05:54:17.418Z,26.40
2023-02-07T05:55:19.279Z,23.25
2023-02-07T05:56:21.092Z,18.40
2023-02-07T05:57:22.890Z,22.85
2023-02-07T05:58:24.671Z,17.13
2023-02-07T05:59:26.512Z,19.55
2023-02-07T06:00:28.293Z,21.10
2023-02-07T06:01:30.093Z,19.02
2023-02-07T06:02:32.316Z,18.45
2023-02-07T06:03:34.024Z,19.75
2023-02-07T06:04:35.810Z,18.77
2023-02-07T06:05:37.738Z,19.63
2023-02-07T06:06:39.878Z,19.48
2023-02-07T06:07:41.673Z,19.00
2023-02-07T06:08:43.342Z,19.67
2023-02-07T06:09:45.086Z,21.00
2023-02-07T06:10:48.557Z,16.92
2023-02-07T06:11:50.266Z,17.13
2023-02-07T06:12:52.113Z,27.60
2023-02-07T06:13:53.839Z,18.50
2023-02-07T06:14:55.565Z,17.47
2023-02-07T06:15:57.419Z,22.83
2023-02-07T06:16:59.278Z,24.08
2023-02-07T06:18:01.058Z,15.25
2023-02-07T06:19:02.768Z,17.85
2023-02-07T06:20:05.577Z,15.90
2023-02-07T06:21:07.418Z,16.15
2023-02-07T06:22:09.091Z,19.33
2023-02-07T06:23:10.833Z,18.30
2023-02-07T06:24:12.828Z,20.65
2023-02-07T06:25:14.743Z,17.87
2023-02-07T06:26:16.500Z,19.70
2023-02-07T06:27:18.371Z,20.80
2023-02-07T06:28:20.264Z,17.35
2023-02-07T06:29:21.998Z,19.73
2023-02-07T06:30:23.770Z,20.52
2023-02-07T06:31:25.561Z,21.55
2023-02-07T06:32:27.335Z,19.25
2023-02-07T06:33:29.012Z,20.02
2023-02-07T06:34:30.725Z,18.90
2023-02-07T06:35:32.531Z,20.37
2023-02-07T06:36:34.257Z,18.95
2023-02-07T06:37:36.061Z,18.52
2023-02-07T06:38:37.780Z,20.63
2023-02-07T06:39:39.917Z,19.20
2023-02-07T06:40:42.518Z,24.80
2023-02-07T06:41:44.268Z,21.92
2023-02-07T06:42:46.090Z,19.10
2023-02-07T06:43:47.832Z,21.10
2023-02-07T06:44:49.532Z,21.30
2023-02-07T06:45:51.348Z,17.73
2023-02-07T06:46:53.020Z,21.25
2023-02-07T06:47:54.802Z,22.17
2023-02-07T06:48:56.588Z,23.05
2023-02-07T06:49:58.304Z,21.05
2023-02-07T06:51:00.036Z,23.83
2023-02-07T06:52:01.836Z,26.42
2023-02-07T06:53:03.912Z,22.40
2023-02-07T06:54:05.639Z,21.50
2023-02-07T06:55:07.916Z,20.52
2023-02-07T06:56:09.705Z,25.53
2023-02-07T06:57:11.550Z,21.85
2023-02-07T06:58:13.322Z,21.42
2023-02-07T06:59:15.169Z,25.00
2023-02-07T07:00:17.362Z,21.75
2023-02-07T07:01:19.226Z,28.95
2023-02-07T07:02:20.942Z,29.70
2023-02-07T07:03:22.641Z,32.17
2023-02-07T07:04:24.440Z,25.90
2023-02-07T07:05:27.681Z,39.33
2023-02-07T07:06:29.728Z,22.53
2023-02-07T07:07:31.459Z,21.40
2023-02-07T07:08:33.174Z,23.17
2023-02-07T07:09:34.918Z,21.30
2023-02-07T07:10:36.904Z,23.02
2023-02-07T07:11:38.674Z,18.58
2023-02-07T07:12:40.642Z,20.42
2023-02-07T07:13:42.429Z,20.25
2023-02-07T07:14:44.136Z,19.92
2023-02-07T07:15:45.857Z,18.45
2023-02-07T07:16:47.556Z,19.37
2023-02-07T07:17:49.326Z,22.77
2023-02-07T07:18:51.078Z,18.42
2023-02-07T07:19:52.934Z,16.33
2023-02-07T07:20:56.098Z,21.58
2023-02-07T07:21:57.894Z,19.67
2023-02-07T07:22:59.716Z,17.33
2023-02-07T07:24:01.466Z,18.83
2023-02-07T07:25:03.231Z,18.05
2023-02-07T07:26:05.271Z,16.90
2023-02-07T07:27:07.085Z,18.10
2023-02-07T07:28:09.328Z,21.08
2023-02-07T07:29:11.062Z,20.60
2023-02-07T07:30:13.330Z,18.20
2023-02-07T07:31:15.907Z,19.35
2023-02-07T07:32:33.000Z,19.17
2023-02-07T07:33:36.378Z,24.58
2023-02-07T07:34:38.421Z,27.40
2023-02-07T07:35:40.446Z,20.23
2023-02-07T07:36:42.413Z,26.23
2023-02-07T07:37:44.131Z,20.87
2023-02-07T07:38:47.786Z,24.33
2023-02-07T07:39:49.862Z,18.00
2023-02-07T07:40:51.617Z,19.42
2023-02-07T07:41:53.334Z,20.40
2023-02-07T07:42:55.067Z,25.73
2023-02-07T07:43:57.102Z,20.23
2023-02-07T07:44:58.895Z,17.75
2023-02-07T07:46:00.601Z,17.40
2023-02-07T07:47:02.417Z,18.63
2023-02-07T07:48:04.280Z,20.17
2023-02-07T07:49:05.992Z,23.20
2023-02-07T07:50:07.865Z,22.60
2023-02-07T07:51:09.919Z,17.88
2023-02-07T07:52:12.085Z,16.33
2023-02-07T07:53:14.407Z,19.25
2023-02-07T07:54:16.348Z,18.27
2023-02-07T07:55:18.322Z,16.10
2023-02-07T07:56:20.200Z,18.65
2023-02-07T07:57:21.972Z,17.48
2023-02-07T07:58:25.536Z,17.33
2023-02-07T07:59:27.430Z,22.08
2023-02-07T08:00:29.300Z,19.23
2023-02-07T08:01:31.152Z,18.02
2023-02-07T08:02:32.966Z,15.70
2023-02-07T08:03:34.750Z,20.27
2023-02-07T08:04:36.539Z,31.00
2023-02-07T08:05:38.328Z,20.63
2023-02-07T08:06:40.196Z,14.07
2023-02-07T08:07:41.898Z,16.83
2023-02-07T08:08:43.647Z,23.90
2023-02-07T08:09:45.563Z,15.52
2023-02-07T08:10:48.594Z,17.80
2023-02-07T08:11:50.279Z,19.90
2023-02-07T08:12:52.022Z,12.77
2023-02-07T08:13:53.701Z,14.38
2023-02-07T08:14:55.469Z,30.30
2023-02-07T08:15:57.277Z,21.45
2023-02-07T08:16:59.012Z,19.48
2023-02-07T08:18:00.764Z,20.17
2023-02-07T08:19:02.730Z,17.93
2023-02-07T08:20:05.027Z,16.05
2023-02-07T08:21:06.835Z,15.13
2023-02-07T08:22:08.633Z,13.27
2023-02-07T08:23:10.465Z,19.50
2023-02-07T08:24:12.224Z,22.65
2023-02-07T08:25:14.132Z,321.52
2023-02-07T08:26:15.829Z,403.77
2023-02-07T08:27:17.699Z,100.85
2023-02-07T08:28:21.805Z,20.90
2023-02-07T08:29:23.519Z,75.90
2023-02-07T08:30:25.298Z,22.38
2023-02-07T08:31:27.100Z,14.85
2023-02-07T08:32:28.817Z,12.93
2023-02-07T08:33:33.861Z,21.35
2023-02-07T08:34:35.580Z,23.05
2023-02-07T08:35:37.500Z,20.85
2023-02-07T08:36:39.170Z,20.98
2023-02-07T08:37:40.823Z,20.63
2023-02-07T08:38:42.561Z,16.85
2023-02-07T08:39:44.245Z,18.90
2023-02-07T08:40:46.038Z,21.40
2023-02-07T08:41:47.712Z,14.73
2023-02-07T08:42:49.462Z,25.42
2023-02-07T08:43:51.167Z,16.60
2023-02-07T08:44:52.852Z,15.10
2023-02-07T08:45:54.772Z,13.77
2023-02-07T08:46:56.592Z,13.30
2023-02-07T08:47:58.418Z,15.20
2023-02-07T08:49:00.181Z,16.08
2023-02-07T08:50:02.169Z,11.50
2023-02-07T08:51:09.254Z,12.55
2023-02-07T08:52:14.609Z,19.60
2023-02-07T08:53:16.338Z,13.48
2023-02-07T08:54:18.229Z,13.73
2023-02-07T08:55:20.063Z,14.35
2023-02-07T08:56:22.003Z,14.07
2023-02-07T08:57:23.773Z,11.07
2023-02-07T08:58:25.721Z,13.93
2023-02-07T08:59:27.589Z,18.67
2023-02-07T09:00:29.303Z,13.43
2023-02-07T09:01:31.219Z,13.93
2023-02-07T09:02:33.283Z,15.57
2023-02-07T09:03:34.944Z,15.35
2023-02-07T09:04:36.664Z,12.73
2023-02-07T09:05:38.485Z,14.18
2023-02-07T09:06:40.501Z,13.68
2023-02-07T09:07:42.200Z,12.35
2023-02-07T09:08:43.922Z,15.05
2023-02-07T09:09:46.461Z,14.70
2023-02-07T09:10:48.251Z,14.67
2023-02-07T09:11:50.065Z,10.38
2023-02-07T09:12:52.017Z,11.63
2023-02-07T09:13:53.730Z,9.38
2023-02-07T09:14:55.474Z,11.45
2023-02-07T09:15:58.847Z,12.55
2023-02-07T09:17:00.742Z,13.15
2023-02-07T09:18:02.582Z,14.93
2023-02-07T09:19:04.358Z,19.02
2023-02-07T09:20:06.955Z,15.43
2023-02-07T09:21:08.973Z,12.77
2023-02-07T09:22:10.720Z,10.82
2023-02-07T09:23:12.625Z,14.32
2023-02-07T09:24:14.361Z,15.15
2023-02-07T09:25:16.053Z,18.48
2023-02-07T09:26:21.360Z,16.98
2023-02-07T09:27:23.347Z,32.50
2023-02-07T09:28:25.079Z,13.70
2023-02-07T09:29:26.867Z,17.83
2023-02-07T09:30:28.640Z,16.67
2023-02-07T09:31:30.456Z,25.27
2023-02-07T09:32:32.268Z,25.27
2023-02-07T09:33:33.999Z,19.00
2023-02-07T09:34:36.149Z,16.30
2023-02-07T09:35:43.875Z,18.38
2023-02-07T09:36:45.874Z,15.30
2023-02-07T09:37:50.046Z,17.42
2023-02-07T09:38:52.593Z,15.30
2023-02-07T09:39:54.333Z,14.57
2023-02-07T09:40:56.162Z,13.60
2023-02-07T09:42:27.229Z,21.70
2023-02-07T09:43:36.533Z,16.98
2023-02-07T09:44:46.884Z,15.07
2023-02-07T09:45:56.302Z,17.33
2023-02-07T09:47:06.146Z,14.43
2023-02-07T09:48:16.613Z,16.42
2023-02-07T09:49:30.531Z,13.68
2023-02-07T09:50:43.546Z,15.90
2023-02-07T09:51:46.217Z,14.32
2023-02-07T09:52:53.402Z,18.63
2023-02-07T09:54:11.417Z,13.87
2023-02-07T09:55:22.409Z,14.95
2023-02-07T09:56:28.125Z,16.48
2023-02-07T09:57:40.121Z,18.25
2023-02-07T09:58:52.145Z,14.63
2023-02-07T10:00:23.230Z,16.52
2023-02-07T10:01:30.183Z,15.40
2023-02-07T10:02:38.251Z,20.25
2023-02-07T10:03:49.199Z,20.02
2023-02-07T10:04:52.820Z,24.30
2023-02-07T10:06:01.453Z,21.27
2023-02-07T10:07:07.760Z,20.25
2023-02-07T10:08:15.386Z,18.70
2023-02-07T10:09:19.257Z,18.50
2023-02-07T10:10:38.110Z,22.45
2023-02-07T10:11:51.446Z,19.90
2023-02-07T10:12:58.913Z,22.77
2023-02-07T10:14:17.152Z,18.92
2023-02-07T10:15:43.041Z,17.83
2023-02-07T10:17:09.322Z,16.55
2023-02-07T10:18:25.288Z,14.43
2023-02-07T10:19:54.315Z,15.98
2023-02-07T10:21:09.662Z,11.65
2023-02-07T10:22:32.306Z,16.85
2023-02-07T10:23:50.932Z,15.20
2023-02-07T10:25:24.082Z,13.02
2023-02-07T10:26:45.840Z,21.42
2023-02-07T10:27:59.787Z,10.68
2023-02-07T10:29:04.221Z,14.57
2023-02-07T10:30:18.612Z,15.25
2023-02-07T10:31:24.994Z,16.47
2023-02-07T10:32:31.367Z,13.30
2023-02-07T10:33:37.463Z,14.80
2023-02-07T10:34:44.532Z,20.00
2023-02-07T10:35:48.501Z,21.00
2023-02-07T10:36:53.300Z,15.95
2023-02-07T10:37:59.291Z,13.25
2023-02-07T10:39:10.029Z,13.57
2023-02-07T10:40:22.946Z,16.50
2023-02-07T10:41:45.250Z,16.48
2023-02-07T10:42:53.078Z,20.40
2023-02-07T10:43:54.957Z,14.80
2023-02-07T10:44:56.678Z,22.95
2023-02-07T10:46:19.234Z,21.80
2023-02-07T10:47:21.211Z,22.13
2023-02-07T10:48:22.914Z,12.73
2023-02-07T10:49:32.918Z,13.23
2023-02-07T10:50:36.161Z,22.42
2023-02-07T10:51:43.332Z,16.33
2023-02-07T10:52:56.671Z,10.55
2023-02-07T10:54:06.354Z,21.03
2023-02-07T10:55:10.854Z,13.85
2023-02-07T10:56:21.830Z,14.15
2023-02-07T10:57:24.622Z,13.88
2023-02-07T10:58:39.238Z,13.77
2023-02-07T10:59:43.250Z,15.93
2023-02-07T11:00:50.076Z,14.05
2023-02-07T11:01:55.076Z,11.25
2023-02-07T11:03:12.905Z,15.35
2023-02-07T11:04:37.472Z,15.77
2023-02-07T11:06:00.621Z,15.40
2023-02-07T11:07:05.088Z,17.55
2023-02-07T11:08:15.651Z,15.73
2023-02-07T11:09:23.486Z,14.43
2023-02-07T11:10:37.411Z,13.70
2023-02-07T11:11:39.525Z,14.57
2023-02-07T11:12:54.789Z,11.15
2023-02-07T11:14:03.559Z,16.25
2023-02-07T11:15:16.439Z,16.20
2023-02-07T11:16:20.649Z,14.48
2023-02-07T11:17:22.466Z,17.03
2023-02-07T11:18:45.016Z,16.40
2023-02-07T11:19:47.303Z,12.40
2023-02-07T11:20:50.229Z,18.40
2023-02-07T11:21:57.441Z,18.63
2023-02-07T11:22:59.707Z,15.93
2023-02-07T11:24:06.603Z,15.73
2023-02-07T11:25:09.495Z,11.55
2023-02-07T11:26:11.336Z,15.07
2023-02-07T11:27:23.406Z,15.43
2023-02-07T11:28:28.671Z,17.43
2023-02-07T11:29:33.969Z,16.77
2023-02-07T11:30:37.457Z,18.02
2023-02-07T11:31:39.573Z,16.40
2023-02-07T11:32:41.929Z,16.48
2023-02-07T11:33:44.100Z,23.25
2023-02-07T11:34:53.505Z,16.67
2023-02-07T11:36:33.974Z,12.18
2023-02-07T11:37:38.643Z,12.10
2023-02-07T11:38:46.080Z,11.88
2023-02-07T11:39:49.393Z,16.43
2023-02-07T11:40:51.076Z,54.75
2023-02-07T11:42:00.486Z,28.67
2023-02-07T11:43:14.035Z,16.83
2023-02-07T11:44:18.308Z,12.55
2023-02-07T11:45:22.734Z,12.40
2023-02-07T11:46:35.326Z,16.05
2023-02-07T11:47:37.564Z,17.58
2023-02-07T11:48:40.924Z,18.73
2023-02-07T11:49:47.916Z,15.50
2023-02-07T11:50:54.438Z,14.80
2023-02-07T11:52:00.401Z,13.85
2023-02-07T11:53:02.332Z,14.38
2023-02-07T11:54:06.811Z,15.98
2023-02-07T11:55:18.144Z,16.60
2023-02-07T11:56:45.045Z,16.17
2023-02-07T11:57:47.192Z,9.10
2023-02-07T11:58:49.510Z,17.83
2023-02-07T12:00:18.902Z,11.82
2023-02-07T12:01:28.716Z,17.08
2023-02-07T12:02:31.123Z,15.13
2023-02-07T12:03:49.892Z,16.33
2023-02-07T12:04:53.216Z,13.15
2023-02-07T12:05:59.241Z,15.75
2023-02-07T12:07:09.405Z,14.80
2023-02-07T12:08:18.568Z,14.18
2023-02-07T12:10:04.193Z,15.32
2023-02-07T12:11:15.170Z,12.05
2023-02-07T12:12:23.338Z,13.73
2023-02-07T12:13:33.698Z,11.25
2023-02-07T12:14:48.841Z,12.90
2023-02-07T12:16:00.820Z,13.68
2023-02-07T12:17:08.635Z,12.90
2023-02-07T12:18:10.289Z,11.65
2023-02-07T12:19:25.652Z,15.07
2023-02-07T12:20:33.340Z,14.70
2023-02-07T12:21:49.541Z,14.60
2023-02-07T12:23:34.458Z,12.27
2023-02-07T12:24:39.942Z,13.57
2023-02-07T12:25:54.307Z,15.30
2023-02-07T12:27:09.057Z,12.00
2023-02-07T12:28:20.267Z,15.00
2023-02-07T12:29:35.942Z,50.60
2023-02-07T12:30:42.943Z,19.45
2023-02-07T12:31:56.551Z,13.82
2023-02-07T12:33:10.314Z,18.95
2023-02-07T12:34:23.251Z,12.20
2023-02-07T12:35:28.359Z,16.92
2023-02-07T12:36:38.061Z,13.15
2023-02-07T12:38:04.124Z,13.27
2023-02-07T12:39:15.097Z,13.93
2023-02-07T12:40:58.096Z,12.88
2023-02-07T12:42:24.848Z,15.73
2023-02-07T12:43:30.754Z,27.15
2023-02-07T12:44:42.690Z,13.95
2023-02-07T12:46:02.291Z,14.80
2023-02-07T12:47:21.255Z,13.35
2023-02-07T12:48:57.058Z,15.00
2023-02-07T12:50:24.367Z,10.43
2023-02-07T12:51:33.724Z,51.03
2023-02-07T12:52:35.473Z,66.67
2023-02-07T12:53:49.142Z,15.68
2023-02-07T12:55:28.260Z,13.48
2023-02-07T12:56:33.061Z,15.95
2023-02-07T12:57:57.388Z,16.70
2023-02-07T12:59:02.784Z,13.55
2023-02-07T13:00:23.220Z,10.02
2023-02-07T13:01:37.822Z,13.02
2023-02-07T13:03:11.717Z,12.20
2023-02-07T13:04:31.699Z,12.45
2023-02-07T13:06:01.363Z,8.23
2023-02-07T13:07:34.279Z,14.70
2023-02-07T13:08:44.755Z,10.85
2023-02-07T13:10:21.433Z,13.80
2023-02-07T13:11:42.664Z,11.27
2023-02-07T13:13:23.540Z,8.80
2023-02-07T13:14:34.085Z,6.25
2023-02-07T13:15:41.607Z,8.85
2023-02-07T13:17:00.961Z,6.97
2023-02-07T13:18:19.053Z,6.50
2023-02-07T13:19:41.510Z,7.07
2023-02-07T13:20:47.802Z,6.97
2023-02-07T13:21:58.130Z,8.48
2023-02-07T13:23:04.478Z,5.20
2023-02-07T13:24:08.604Z,8.38
2023-02-07T13:25:21.944Z,6.13
2023-02-07T13:26:23.987Z,6.25
2023-02-07T13:27:29.249Z,10.43
2023-02-07T13:28:43.216Z,7.85
2023-02-07T13:29:47.741Z,6.82
2023-02-07T13:30:50.492Z,8.23
2023-02-07T13:32:24.651Z,7.03
2023-02-07T13:33:33.176Z,6.93
2023-02-07T13:34:57.827Z,7.78
2023-02-07T13:36:07.599Z,7.00
2023-02-07T13:37:17.099Z,6.43
2023-02-07T13:38:53.229Z,10.15
2023-02-07T13:40:16.230Z,5.72
2023-02-07T13:41:36.620Z,10.52
2023-02-07T13:43:00.877Z,19.50
2023-02-07T13:44:29.864Z,17.93
2023-02-07T13:46:27.012Z,11.77
2023-02-07T13:47:58.293Z,9.57
2023-02-07T13:49:09.567Z,12.63
2023-02-07T13:50:24.472Z,11.95
2023-02-07T13:51:35.346Z,10.73
2023-02-07T13:53:22.061Z,13.68
2023-02-07T13:54:54.405Z,15.45
2023-02-07T13:56:02.218Z,11.23
2023-02-07T13:57:04.141Z,12.70
2023-02-07T13:58:35.158Z,11.13
2023-02-07T13:59:39.076Z,13.15
2023-02-07T14:00:55.976Z,11.95
2023-02-07T14:01:59.730Z,12.82
2023-02-07T14:03:05.211Z,15.68
2023-02-07T14:04:13.923Z,14.68
2023-02-07T14:05:43.693Z,10.27
2023-02-07T14:06:54.239Z,11.73
2023-02-07T14:08:00.635Z,12.18
2023-02-07T14:09:22.167Z,20.70
2023-02-07T14:10:56.625Z,14.60
2023-02-07T14:12:02.918Z,11.25
2023-02-07T14:13:05.790Z,11.52
2023-02-07T14:14:31.186Z,13.50
2023-02-07T14:15:32.895Z,9.60
2023-02-07T14:16:47.548Z,11.95
2023-02-07T14:18:04.449Z,12.05
2023-02-07T14:19:12.653Z,12.30
2023-02-07T14:20:36.231Z,15.52
2023-02-07T14:21:40.977Z,13.30
2023-02-07T14:22:42.774Z,10.90
2023-02-07T14:24:01.860Z,11.35
2023-02-07T14:25:03.505Z,11.88
2023-02-07T14:26:40.569Z,15.27
2023-02-07T14:28:17.681Z,12.70
2023-02-07T14:29:22.340Z,20.05